createdAt,value
2019-02-24T00:00:47.177Z,-1.50
2019-02-24T00:03:19.185Z,-1.50
2019-02-24T00:05:49.560Z,-1.50
2019-02-24T00:08:19.956Z,-1.50
2019-02-24T00:10:50.391Z,-1.50
2019-02-24T00:13:20.838Z,-1.50
2019-02-24T00:15:51.191Z,-1.50
2019-02-24T00:18:21.602Z,-1.50
2019-02-24T00:20:52.080Z,-1.50
2019-02-24T00:23:22.534Z,-1.50
2019-02-24T00:25:52.909Z,-1.50
2019-02-24T00:28:23.319Z,-1.50
2019-02-24T00:30:53.803Z,-1.50
2019-02-24T00:33:24.252Z,-1.50
2019-02-24T00:35:54.615Z,-1.60
2019-02-24T00:38:25.027Z,-1.50
2019-02-24T00:40:55.534Z,-1.50
2019-02-24T00:43:25.917Z,-1.50
2019-02-24T00:45:56.293Z,-1.40
2019-02-24T00:48:26.690Z,-1.40
2019-02-24T00:50:57.066Z,-1.40
2019-02-24T00:53:27.559Z,-1.30
2019-02-24T00:55:57.967Z,-1.30
2019-02-24T00:58:28.447Z,-1.30
2019-02-24T01:00:58.960Z,-1.30
2019-02-24T01:03:30.534Z,-1.20
2019-02-24T01:06:01.029Z,-1.30
2019-02-24T01:08:31.454Z,-1.30
2019-02-24T01:11:01.851Z,-1.30
2019-02-24T01:13:32.306Z,-1.30
2019-02-24T01:16:02.691Z,-1.30
2019-02-24T01:18:33.132Z,-1.40
2019-02-24T01:21:03.518Z,-1.40
2019-02-24T01:23:33.912Z,-1.40
2019-02-24T01:26:04.329Z,-1.50
2019-02-24T01:28:34.726Z,-1.50
2019-02-24T01:31:05.149Z,-1.50
2019-02-24T01:33:35.609Z,-1.50
2019-02-24T01:36:05.993Z,-1.50
2019-02-24T01:38:37.443Z,-1.50
2019-02-24T01:41:07.876Z,-1.50
2019-02-24T01:43:38.330Z,-1.50
2019-02-24T01:46:08.706Z,-1.60
2019-02-24T01:48:39.154Z,-1.60
2019-02-24T01:51:09.572Z,-1.60
2019-02-24T01:53:39.979Z,-1.60
2019-02-24T01:56:10.388Z,-1.70
2019-02-24T01:58:40.810Z,-1.70
2019-02-24T02:01:11.198Z,-1.70
2019-02-24T02:03:41.629Z,-1.70
2019-02-24T02:06:12.030Z,-1.80
2019-02-24T02:08:42.492Z,-1.80
2019-02-24T02:11:13.013Z,-1.80
2019-02-24T02:13:43.440Z,-1.90
2019-02-24T02:16:13.880Z,-1.90
2019-02-24T02:18:44.307Z,-1.90
2019-02-24T02:21:15.689Z,-1.90
2019-02-24T02:23:46.188Z,-1.90
2019-02-24T02:26:16.551Z,-2.00
2019-02-24T02:28:47.936Z,-2.00
2019-02-24T02:31:18.381Z,-2.00
2019-02-24T02:33:48.772Z,-2.00
2019-02-24T02:36:19.176Z,-2.00
2019-02-24T02:38:49.678Z,-2.10
2019-02-24T02:41:20.121Z,-2.00
2019-02-24T02:43:50.596Z,-2.00
2019-02-24T02:46:21.025Z,-2.00
2019-02-24T02:48:53.216Z,-2.00
2019-02-24T02:51:23.650Z,-2.00
2019-02-24T02:53:54.036Z,-2.00
2019-02-24T02:56:24.481Z,-2.10
2019-02-24T02:58:54.922Z,-2.00
2019-02-24T03:01:25.272Z,-2.10
2019-02-24T03:03:55.678Z,-2.10
2019-02-24T03:06:33.560Z,-2.10
2019-02-24T03:09:05.895Z,-2.10
2019-02-24T03:11:37.049Z,-2.10
2019-02-24T03:14:07.496Z,-2.10
2019-02-24T03:16:38.010Z,-2.10
2019-02-24T03:19:08.401Z,-2.10
2019-02-24T03:21:38.827Z,-2.10
2019-02-24T03:24:09.246Z,-2.10
2019-02-24T03:26:39.589Z,-2.10
2019-02-24T03:29:10.009Z,-2.10
2019-02-24T03:31:40.431Z,-2.10
2019-02-24T03:34:11.009Z,-2.10
2019-02-24T03:36:41.401Z,-2.10
2019-02-24T03:39:11.809Z,-2.10
2019-02-24T03:41:42.276Z,-2.20
2019-02-24T03:44:12.683Z,-2.20
2019-02-24T03:46:43.058Z,-2.20
2019-02-24T03:49:13.486Z,-2.20
2019-02-24T03:51:43.909Z,-2.10
2019-02-24T03:54:15.409Z,-2.20
2019-02-24T03:56:46.925Z,-2.20
2019-02-24T03:59:17.438Z,-2.20
2019-02-24T04:01:47.876Z,-2.20
2019-02-24T04:04:18.281Z,-2.20
2019-02-24T04:06:48.651Z,-2.20
2019-02-24T04:09:19.058Z,-2.20
2019-02-24T04:11:49.533Z,-2.20
2019-02-24T04:14:19.950Z,-2.20
2019-02-24T04:16:50.355Z,-2.10
2019-02-24T04:19:33.398Z,-2.10
2019-02-24T04:22:03.827Z,-2.10
2019-02-24T04:24:34.227Z,-2.10
2019-02-24T04:27:04.618Z,-2.10
2019-02-24T04:29:35.086Z,-2.10
2019-02-24T04:32:06.720Z,-2.20
2019-02-24T04:34:38.180Z,-2.10
2019-02-24T04:37:08.596Z,-2.10
2019-02-24T04:39:38.989Z,-2.10
2019-02-24T04:42:09.397Z,-2.10
2019-02-24T04:44:39.866Z,-2.20
2019-02-24T04:47:10.276Z,-2.20
2019-02-24T04:49:40.724Z,-2.20
2019-02-24T04:52:11.115Z,-2.20
2019-02-24T04:54:41.520Z,-2.20
2019-02-24T04:57:11.934Z,-2.20
2019-02-24T04:59:42.363Z,-2.20
2019-02-24T05:02:12.733Z,-2.20
2019-02-24T05:04:43.175Z,-2.20
2019-02-24T05:07:13.690Z,-2.20
2019-02-24T05:09:44.098Z,-2.20
2019-02-24T05:12:14.500Z,-2.20
2019-02-24T05:14:44.927Z,-2.10
2019-02-24T05:17:15.322Z,-2.20
2019-02-24T05:19:45.732Z,-2.20
2019-02-24T05:22:16.170Z,-2.20
2019-02-24T05:24:46.551Z,-2.20
2019-02-24T05:27:17.054Z,-2.20
2019-02-24T05:29:47.485Z,-2.20
2019-02-24T05:32:17.914Z,-2.20
2019-02-24T05:34:48.290Z,-2.20
2019-02-24T05:37:18.715Z,-2.20
2019-02-24T05:39:49.159Z,-2.20
2019-02-24T05:42:19.663Z,-2.20
2019-02-24T05:44:50.051Z,-2.20
2019-02-24T05:47:20.457Z,-2.20
2019-02-24T05:49:50.894Z,-2.20
2019-02-24T05:52:21.276Z,-2.20
2019-02-24T05:54:52.051Z,-2.10
2019-02-24T05:57:22.557Z,-2.20
2019-02-24T05:59:55.471Z,-2.20
2019-02-24T06:02:25.032Z,-2.20
2019-02-24T06:04:55.413Z,-2.20
2019-02-24T06:07:25.788Z,-2.20
2019-02-24T06:09:56.198Z,-2.20
2019-02-24T06:12:26.684Z,-2.10
2019-02-24T06:14:57.075Z,-2.10
2019-02-24T06:17:27.453Z,-2.00
2019-02-24T06:19:57.842Z,-2.00
2019-02-24T06:22:28.219Z,-1.90
2019-02-24T06:24:58.610Z,-1.80
2019-02-24T06:27:28.976Z,-1.80
2019-02-24T06:30:04.972Z,-1.70
2019-02-24T06:32:31.438Z,-1.60
2019-02-24T06:35:01.842Z,-1.50
2019-02-24T06:37:32.211Z,-1.40
2019-02-24T06:40:02.626Z,-1.30
2019-02-24T06:42:32.991Z,-1.20
2019-02-24T06:45:03.553Z,-1.10
2019-02-24T06:47:33.921Z,-1.00
2019-02-24T06:50:06.253Z,-0.90
2019-02-24T06:52:36.628Z,-0.90
2019-02-24T06:55:09.437Z,-0.80
2019-02-24T06:57:39.828Z,-0.70
2019-02-24T07:00:14.385Z,-0.50
2019-02-24T07:02:44.098Z,-0.50
2019-02-24T07:05:14.468Z,-0.40
2019-02-24T07:07:44.862Z,-0.40
2019-02-24T07:10:15.234Z,-0.30
2019-02-24T07:12:45.662Z,-0.30
2019-02-24T07:15:16.095Z,-0.20
2019-02-24T07:17:46.496Z,-0.10
2019-02-24T07:20:16.860Z,0.00
2019-02-24T07:22:47.248Z,0.00
2019-02-24T07:25:17.611Z,0.20
2019-02-24T07:28:00.288Z,0.30
2019-02-24T07:30:30.670Z,0.30
2019-02-24T07:33:01.049Z,0.50
2019-02-24T07:35:32.404Z,0.70
2019-02-24T07:38:02.859Z,0.90
2019-02-24T07:40:33.223Z,1.00
2019-02-24T07:43:03.645Z,1.20
2019-02-24T07:45:33.977Z,1.40
2019-02-24T07:48:04.355Z,1.60
2019-02-24T07:50:34.716Z,1.60
2019-02-24T07:53:05.170Z,1.70
2019-02-24T07:55:35.534Z,1.80
2019-02-24T07:58:05.918Z,2.00
2019-02-24T08:00:36.280Z,2.00
2019-02-24T08:03:06.667Z,2.20
2019-02-24T08:05:37.023Z,2.20
2019-02-24T08:08:16.049Z,2.30
2019-02-24T08:10:39.537Z,2.40
2019-02-24T08:13:09.939Z,2.60
2019-02-24T08:15:40.339Z,2.80
2019-02-24T08:18:10.725Z,2.70
2019-02-24T08:20:41.084Z,2.90
2019-02-24T08:23:11.470Z,3.10
2019-02-24T08:25:41.830Z,3.30
2019-02-24T08:28:12.208Z,3.20
2019-02-24T08:30:42.577Z,3.40
2019-02-24T08:33:12.950Z,3.30
2019-02-24T08:35:43.317Z,3.30
2019-02-24T08:38:13.691Z,3.50
2019-02-24T08:40:44.145Z,3.90
2019-02-24T08:43:14.537Z,4.20
2019-02-24T08:45:44.904Z,4.60
2019-02-24T08:48:15.430Z,5.20
2019-02-24T08:50:45.840Z,5.60
2019-02-24T08:53:17.193Z,6.30
2019-02-24T08:55:47.620Z,6.80
2019-02-24T08:58:18.368Z,7.60
2019-02-24T09:00:51.273Z,7.80
2019-02-24T09:03:20.820Z,8.60
2019-02-24T09:05:51.201Z,9.60
2019-02-24T09:08:21.580Z,9.40
2019-02-24T09:10:52.023Z,11.20
2019-02-24T09:13:22.419Z,14.30
2019-02-24T09:15:53.455Z,16.20
2019-02-24T09:18:24.036Z,18.40
2019-02-24T09:20:54.404Z,20.50
2019-02-24T09:23:24.806Z,21.60
2019-02-24T09:25:55.178Z,21.50
2019-02-24T09:28:25.636Z,22.50
2019-02-24T09:31:00.757Z,22.60
2019-02-24T09:33:28.106Z,23.00
2019-02-24T09:35:58.484Z,23.90
2019-02-24T09:38:29.854Z,23.70
2019-02-24T09:41:01.344Z,23.10
2019-02-24T09:43:33.222Z,24.20
2019-02-24T09:46:03.601Z,25.00
2019-02-24T09:48:34.166Z,25.00
2019-02-24T09:51:04.573Z,26.20
2019-02-24T09:53:34.974Z,25.40
2019-02-24T09:56:05.350Z,26.90
2019-02-24T09:58:35.753Z,26.30
2019-02-24T10:01:10.586Z,25.80
2019-02-24T10:03:38.235Z,24.60
2019-02-24T10:06:11.280Z,23.20
2019-02-24T10:08:41.816Z,23.90
2019-02-24T10:11:13.277Z,24.40
2019-02-24T10:13:43.825Z,23.50
2019-02-24T10:16:14.256Z,22.80
2019-02-24T10:18:44.712Z,22.60
2019-02-24T10:21:15.093Z,23.40
2019-02-24T10:23:45.662Z,23.50
2019-02-24T10:26:19.282Z,23.50
2019-02-24T10:28:52.361Z,24.30
2019-02-24T10:31:22.710Z,23.90
2019-02-24T10:33:56.108Z,22.30
2019-02-24T10:36:26.554Z,21.60
2019-02-24T10:38:57.070Z,21.70
2019-02-24T10:41:27.668Z,21.10
2019-02-24T10:43:58.062Z,21.20
2019-02-24T10:46:31.653Z,22.10
2019-02-24T10:49:03.774Z,22.80
2019-02-24T10:51:37.822Z,21.70
2019-02-24T10:54:08.269Z,22.00
2019-02-24T10:56:38.643Z,22.20
2019-02-24T10:59:09.434Z,23.60
2019-02-24T11:01:39.957Z,23.70
2019-02-24T11:04:10.512Z,24.10
2019-02-24T11:06:41.938Z,24.20
2019-02-24T11:09:12.397Z,25.80
2019-02-24T11:11:42.774Z,26.30
2019-02-24T11:14:25.025Z,26.40
2019-02-24T11:16:58.380Z,27.40
2019-02-24T11:19:28.872Z,27.50
2019-02-24T11:21:59.435Z,27.80
2019-02-24T11:24:29.826Z,27.70
2019-02-24T11:27:00.371Z,29.30
2019-02-24T11:29:30.770Z,29.10
2019-02-24T11:32:01.135Z,29.80
2019-02-24T11:34:31.529Z,29.40
2019-02-24T11:37:01.897Z,29.10
2019-02-24T11:39:32.294Z,29.00
2019-02-24T11:42:02.660Z,29.20
2019-02-24T11:44:33.154Z,29.40
2019-02-24T11:47:03.675Z,28.80
2019-02-24T11:49:34.136Z,28.70
2019-02-24T11:52:04.492Z,28.50
2019-02-24T11:54:34.881Z,28.70
2019-02-24T11:57:05.252Z,28.60
2019-02-24T11:59:35.652Z,27.30
2019-02-24T12:02:06.059Z,26.10
2019-02-24T12:04:36.438Z,25.00
2019-02-24T12:07:06.799Z,22.80
2019-02-24T12:09:38.110Z,21.40
2019-02-24T12:12:08.577Z,21.30
2019-02-24T12:14:41.799Z,20.50
2019-02-24T12:17:14.885Z,20.00
2019-02-24T12:19:45.347Z,21.10
2019-02-24T12:22:16.211Z,22.80
2019-02-24T12:24:46.636Z,23.10
2019-02-24T12:27:17.006Z,22.40
2019-02-24T12:29:47.522Z,21.40
2019-02-24T12:32:17.890Z,20.60
2019-02-24T12:34:48.370Z,20.80
2019-02-24T12:37:18.802Z,22.50
2019-02-24T12:39:49.197Z,22.90
2019-02-24T12:42:19.560Z,23.40
2019-02-24T12:44:49.953Z,23.20
2019-02-24T12:47:20.317Z,23.00
2019-02-24T12:49:50.709Z,22.80
2019-02-24T12:52:21.084Z,23.60
2019-02-24T12:54:51.782Z,23.40
2019-02-24T12:57:22.152Z,23.80
2019-02-24T12:59:52.549Z,23.50
2019-02-24T13:02:23.093Z,24.40
2019-02-24T13:04:53.480Z,24.20
2019-02-24T13:07:23.846Z,23.70
2019-02-24T13:09:54.276Z,23.20
2019-02-24T13:12:24.606Z,22.60
2019-02-24T13:14:55.001Z,22.60
2019-02-24T13:17:25.392Z,22.50
2019-02-24T13:19:55.784Z,21.90
2019-02-24T13:22:26.215Z,20.90
2019-02-24T13:24:56.578Z,20.10
2019-02-24T13:27:26.937Z,19.70
2019-02-24T13:29:57.342Z,18.80
2019-02-24T13:32:27.713Z,18.40
2019-02-24T13:34:58.190Z,18.00
2019-02-24T13:37:28.552Z,17.20
2019-02-24T13:40:00.052Z,16.60
2019-02-24T13:42:30.413Z,15.80
2019-02-24T13:45:00.829Z,15.40
2019-02-24T13:47:31.195Z,15.00
2019-02-24T13:50:01.593Z,14.60
2019-02-24T13:52:33.229Z,14.40
2019-02-24T13:55:04.122Z,14.30
2019-02-24T13:57:34.492Z,14.30
2019-02-24T14:00:22.325Z,14.30
2019-02-24T14:02:52.692Z,14.30
2019-02-24T14:05:23.095Z,14.40
2019-02-24T14:07:56.468Z,14.50
2019-02-24T14:10:26.881Z,14.30
2019-02-24T14:12:58.967Z,14.20
2019-02-24T14:15:29.409Z,14.20
2019-02-24T14:17:59.779Z,14.20
2019-02-24T14:20:30.221Z,14.20
2019-02-24T14:23:00.623Z,14.20
2019-02-24T14:25:31.013Z,14.30
2019-02-24T14:28:02.957Z,14.30
2019-02-24T14:30:33.386Z,14.30
2019-02-24T14:33:03.999Z,14.40
2019-02-24T14:35:37.546Z,14.50
2019-02-24T14:38:08.240Z,14.70
2019-02-24T14:40:38.634Z,15.10
2019-02-24T14:43:09.124Z,15.30
2019-02-24T14:45:39.895Z,15.50
2019-02-24T14:48:10.262Z,15.90
2019-02-24T14:50:40.656Z,16.60
2019-02-24T14:53:11.018Z,17.00
2019-02-24T14:55:54.110Z,17.50
2019-02-24T14:58:24.512Z,17.80
2019-02-24T15:00:54.921Z,17.90
2019-02-24T15:03:25.361Z,17.70
2019-02-24T15:05:55.771Z,17.80
2019-02-24T15:08:27.205Z,17.80
2019-02-24T15:10:57.603Z,17.50
2019-02-24T15:13:28.115Z,17.30
2019-02-24T15:15:58.669Z,16.30
2019-02-24T15:18:29.063Z,15.20
2019-02-24T15:20:59.448Z,14.10
2019-02-24T15:23:29.850Z,13.30
2019-02-24T15:26:00.221Z,12.70
2019-02-24T15:28:30.627Z,12.20
2019-02-24T15:31:01.214Z,11.80
2019-02-24T15:33:31.602Z,11.40
2019-02-24T15:36:03.310Z,11.10
2019-02-24T15:38:33.782Z,10.90
2019-02-24T15:41:04.396Z,10.70
2019-02-24T15:43:34.773Z,10.50
2019-02-24T15:46:05.142Z,10.40
2019-02-24T15:48:35.534Z,10.20
2019-02-24T15:51:06.042Z,10.00
2019-02-24T15:53:36.435Z,9.90
2019-02-24T15:56:06.793Z,9.80
2019-02-24T15:58:37.269Z,9.70
2019-02-24T16:01:07.649Z,9.50
2019-02-24T16:03:39.635Z,9.40
2019-02-24T16:06:09.993Z,9.30
2019-02-24T16:08:40.396Z,9.10
2019-02-24T16:11:10.754Z,9.00
2019-02-24T16:13:41.144Z,8.90
2019-02-24T16:16:11.496Z,8.70
2019-02-24T16:18:41.879Z,8.60
2019-02-24T16:21:12.235Z,8.40
2019-02-24T16:23:42.624Z,8.30
2019-02-24T16:26:12.976Z,8.10
2019-02-24T16:28:43.365Z,8.00
2019-02-24T16:31:13.719Z,7.90
2019-02-24T16:33:44.108Z,7.70
2019-02-24T16:36:14.463Z,7.60
2019-02-24T16:38:45.236Z,7.50
2019-02-24T16:41:15.924Z,7.40
2019-02-24T16:43:46.398Z,7.30
2019-02-24T16:46:16.752Z,7.20
2019-02-24T16:48:47.209Z,7.00
2019-02-24T16:51:17.565Z,6.90
2019-02-24T16:53:47.945Z,6.80
2019-02-24T16:56:18.299Z,6.70
2019-02-24T16:58:48.679Z,6.60
2019-02-24T17:01:19.115Z,6.50
2019-02-24T17:03:49.504Z,6.40
2019-02-24T17:06:20.056Z,6.30
2019-02-24T17:08:51.884Z,6.20
2019-02-24T17:11:22.505Z,6.20
2019-02-24T17:13:52.884Z,6.10
2019-02-24T17:16:23.246Z,6.00
2019-02-24T17:18:53.636Z,6.00
2019-02-24T17:21:24.001Z,5.90
2019-02-24T17:23:54.518Z,5.80
2019-02-24T17:26:24.873Z,5.70
2019-02-24T17:28:57.113Z,5.70
2019-02-24T17:31:28.577Z,5.50
2019-02-24T17:33:59.063Z,5.50
2019-02-24T17:36:29.488Z,5.40
2019-02-24T17:38:59.872Z,5.30
2019-02-24T17:41:30.227Z,5.30
2019-02-24T17:44:00.624Z,5.20
2019-02-24T17:46:30.998Z,5.20
2019-02-24T17:49:01.655Z,5.10
2019-02-24T17:51:32.012Z,5.00
2019-02-24T17:54:02.575Z,4.90
2019-02-24T17:56:34.130Z,4.90
2019-02-24T17:59:04.526Z,4.80
2019-02-24T18:01:34.906Z,4.80
2019-02-24T18:04:05.352Z,4.70
2019-02-24T18:06:35.709Z,4.70
2019-02-24T18:09:06.529Z,4.60
2019-02-24T18:11:37.161Z,4.60
2019-02-24T18:14:07.567Z,4.50
2019-02-24T18:16:38.031Z,4.50
2019-02-24T18:19:08.414Z,4.40
2019-02-24T18:21:38.773Z,4.30
2019-02-24T18:24:09.227Z,4.30
2019-02-24T18:26:39.855Z,4.30
2019-02-24T18:29:10.239Z,4.20
2019-02-24T18:31:40.595Z,4.10
2019-02-24T18:34:10.988Z,4.10
2019-02-24T18:36:41.417Z,4.00
2019-02-24T18:39:11.818Z,3.90
2019-02-24T18:41:43.319Z,3.90
2019-02-24T18:44:13.699Z,3.90
2019-02-24T18:46:44.064Z,3.80
2019-02-24T18:49:14.623Z,3.80
2019-02-24T18:51:44.991Z,3.70
2019-02-24T18:54:15.422Z,3.70
2019-02-24T18:56:45.798Z,3.60
2019-02-24T18:59:16.216Z,3.60
2019-02-24T19:01:46.583Z,3.50
2019-02-24T19:04:16.977Z,3.50
2019-02-24T19:06:47.333Z,3.50
2019-02-24T19:09:18.641Z,3.40
2019-02-24T19:11:48.996Z,3.40
2019-02-24T19:14:19.383Z,3.40
2019-02-24T19:16:49.796Z,3.30
2019-02-24T19:19:25.535Z,3.30
2019-02-24T19:21:52.235Z,3.20
2019-02-24T19:24:22.629Z,3.20
2019-02-24T19:26:53.578Z,3.10
2019-02-24T19:29:24.001Z,3.10
2019-02-24T19:31:54.367Z,3.10
2019-02-24T19:34:25.411Z,3.00
2019-02-24T19:36:55.903Z,3.00
2019-02-24T19:39:26.324Z,2.90
2019-02-24T19:41:57.191Z,2.90
2019-02-24T19:44:27.699Z,2.90
2019-02-24T19:46:58.127Z,2.80
2019-02-24T19:49:28.479Z,2.80
2019-02-24T19:51:58.846Z,2.80
2019-02-24T19:54:29.256Z,2.70
2019-02-24T19:56:59.692Z,2.70
2019-02-24T19:59:30.085Z,2.70
2019-02-24T20:02:00.444Z,2.60
2019-02-24T20:04:30.907Z,2.60
2019-02-24T20:07:01.259Z,2.60
2019-02-24T20:09:32.727Z,2.60
2019-02-24T20:12:03.352Z,2.50
2019-02-24T20:14:33.740Z,2.50
2019-02-24T20:17:04.125Z,2.50
2019-02-24T20:19:34.546Z,2.50
2019-02-24T20:22:05.076Z,2.40
2019-02-24T20:24:35.504Z,2.40
2019-02-24T20:27:05.947Z,2.40
2019-02-24T20:29:36.351Z,2.40
2019-02-24T20:32:06.716Z,2.30
2019-02-24T20:34:37.126Z,2.30
2019-02-24T20:37:09.024Z,2.30
2019-02-24T20:39:39.412Z,2.30
2019-02-24T20:42:09.772Z,2.20
2019-02-24T20:44:40.172Z,2.20
2019-02-24T20:47:10.531Z,2.20
2019-02-24T20:49:40.921Z,2.20
2019-02-24T20:52:11.583Z,2.10
2019-02-24T20:54:41.976Z,2.10
2019-02-24T20:57:12.423Z,2.10
2019-02-24T20:59:42.858Z,2.00
2019-02-24T21:02:13.183Z,2.00
2019-02-24T21:04:43.572Z,1.90
2019-02-24T21:07:13.970Z,1.90
2019-02-24T21:09:44.342Z,1.90
2019-02-24T21:12:14.736Z,1.90
2019-02-24T21:14:45.092Z,1.80
2019-02-24T21:17:15.490Z,1.80
2019-02-24T21:19:45.851Z,1.80
2019-02-24T21:22:16.238Z,1.80
2019-02-24T21:24:46.602Z,1.80
2019-02-24T21:27:16.993Z,1.70
2019-02-24T21:29:47.361Z,1.70
2019-02-24T21:32:17.745Z,1.70
2019-02-24T21:34:48.159Z,1.60
2019-02-24T21:37:18.598Z,1.60
2019-02-24T21:42:48.491Z,1.50
2019-02-24T21:45:28.532Z,1.50
2019-02-24T21:47:58.981Z,1.50
2019-02-24T21:50:29.505Z,1.50
2019-02-24T21:52:59.887Z,1.50
2019-02-24T21:55:30.281Z,1.40
2019-02-24T21:58:00.646Z,1.40
2019-02-24T22:00:31.035Z,1.40
2019-02-24T22:03:01.420Z,1.30
2019-02-24T22:05:31.816Z,1.30
2019-02-24T22:08:02.272Z,1.30
2019-02-24T22:10:32.754Z,1.30
2019-02-24T22:13:03.197Z,1.30
2019-02-24T22:15:33.804Z,1.30
2019-02-24T22:18:04.323Z,1.20
2019-02-24T22:20:34.830Z,1.20
2019-02-24T22:23:05.276Z,1.20
2019-02-24T22:25:48.470Z,1.20
2019-02-24T22:28:19.476Z,1.20
2019-02-24T22:30:50.420Z,1.20
2019-02-24T22:33:20.894Z,1.20
2019-02-24T22:35:51.872Z,1.10
2019-02-24T22:38:22.910Z,1.10
2019-02-24T22:40:54.574Z,1.10
2019-02-24T22:43:25.361Z,1.10
2019-02-24T22:45:57.936Z,1.10
2019-02-24T22:48:28.825Z,1.10
2019-02-24T22:50:59.592Z,1.00
2019-02-24T22:53:31.321Z,1.00
2019-02-24T22:56:01.895Z,0.90
2019-02-24T22:58:32.780Z,1.00
2019-02-24T23:01:06.871Z,0.90
2019-02-24T23:03:39.511Z,0.90
2019-02-24T23:06:09.898Z,0.90
2019-02-24T23:08:40.257Z,0.90
2019-02-24T23:11:10.641Z,0.80
2019-02-24T23:13:41.042Z,0.80
2019-02-24T23:16:11.422Z,0.80
2019-02-24T23:18:41.790Z,0.80
2019-02-24T23:21:12.170Z,0.80
2019-02-24T23:23:42.527Z,0.80
2019-02-24T23:26:12.885Z,0.80
2019-02-24T23:28:43.297Z,0.80
2019-02-24T23:31:13.796Z,0.80
2019-02-24T23:33:44.181Z,0.70
2019-02-24T23:36:14.540Z,0.70
2019-02-24T23:38:44.936Z,0.70
2019-02-24T23:41:15.297Z,0.70
2019-02-24T23:43:45.682Z,0.70
2019-02-24T23:46:16.039Z,0.60
2019-02-24T23:48:46.422Z,0.70
2019-02-24T23:51:16.834Z,0.70
2019-02-24T23:53:48.786Z,0.60
2019-02-24T23:56:19.147Z,0.60
2019-02-24T23:58:49.544Z,0.60
